This is the latest recevied weather packets stored in our database for station/object KE9DBJ-13. If no packets are shown the sender has not sent any weather packets the latest 10 day(s).
| Time | Temp. | Humidity | Pressure | Rain* | Wind** | Luminosity | Snow |
|---|---|---|---|---|---|---|---|
| 1777825802 | 17.78° C | 36% | 1018.6 hPa | 0 mm | - | - | - |
| 1777825202 | 17.78° C | 36% | 1018.8 hPa | 0 mm | - | - | - |
| 1777824602 | 17.78° C | 37% | 1019 hPa | 0 mm | - | - | - |
| 1777824002 | 17.78° C | 37% | 1019.1 hPa | 0 mm | - | - | - |
| 1777823402 | 17.22° C | 39% | 1019.2 hPa | 0 mm | - | - | - |
| 1777822802 | 17.22° C | 40% | 1019.2 hPa | 0 mm | - | - | - |
| 1777822202 | 17.22° C | 40% | 1019.2 hPa | 0 mm | - | - | - |
| 1777821602 | 16.11° C | 43% | 1019.4 hPa | 0 mm | - | - | - |
| 1777821003 | 16.11° C | 42% | 1019.4 hPa | 0 mm | - | - | - |
| 1777820403 | 15.56° C | 43% | 1019.4 hPa | 0 mm | - | - | - |
| 1777819803 | 15° C | 44% | 1019.5 hPa | 0 mm | - | - | - |
| 1777819203 | 15° C | 46% | 1019.5 hPa | 0 mm | - | - | - |
| 1777818603 | 14.44° C | 48% | 1019.7 hPa | 0 mm | - | - | - |
| 1777818003 | 13.89° C | 51% | 1019.7 hPa | 0 mm | - | - | - |
| 1777817403 | 12.78° C | 54% | 1019.8 hPa | 0 mm | - | - | - |
| 1777816802 | 11.67° C | 62% | 1019.9 hPa | 0 mm | - | - | - |
| 1777816202 | 10° C | 66% | 1020 hPa | 0 mm | - | - | - |
| 1777815602 | 8.33° C | 78% | 1020.1 hPa | 0 mm | - | - | - |
| 1777815002 | 7.22° C | 91% | 1020.1 hPa | 0 mm | - | - | - |
| 1777814402 | 6.11° C | 95% | 1020.4 hPa | 0 mm | - | - | - |
| 1777813802 | 4.44° C | 99% | 1020.5 hPa | 0 mm | - | - | - |
| 1777813202 | 3.89° C | 99% | 1020.5 hPa | 0 mm | - | - | - |
| 1777812602 | 3.33° C | 99% | 1020.6 hPa | 0 mm | - | - | - |
| 1777812002 | 2.78° C | 99% | 1020.6 hPa | 0 mm | - | - | - |
| 1777811403 | 2.22° C | 99% | 1020.7 hPa | 0 mm | - | - | - |
* Rain latest hour (hover to see other rain measurements)
** Current wind speed in m/s (hover to see current wind gust speed)